createdAt,value
2022-08-31T00:02:42.155Z,98771.00
2022-08-31T00:05:13.222Z,98762.00
2022-08-31T00:07:44.120Z,98758.00
2022-08-31T00:10:18.786Z,98763.00
2022-08-31T00:12:51.011Z,98783.00
2022-08-31T00:15:30.154Z,98761.00
2022-08-31T00:18:01.380Z,98763.00
2022-08-31T00:20:34.758Z,98775.00
2022-08-31T00:23:10.844Z,98779.00
2022-08-31T00:25:45.454Z,98759.00
2022-08-31T00:28:18.110Z,98761.00
2022-08-31T00:30:50.123Z,98762.00
2022-08-31T00:33:21.293Z,98758.00
2022-08-31T00:35:52.233Z,98763.00
2022-08-31T00:38:25.596Z,98776.00
2022-08-31T00:40:56.566Z,98781.00
2022-08-31T00:43:54.749Z,98803.00
2022-08-31T00:46:31.221Z,98816.00
2022-08-31T00:49:09.637Z,98817.00
2022-08-31T00:51:48.077Z,98839.00
2022-08-31T00:54:28.258Z,98839.00
2022-08-31T00:56:59.912Z,98850.00
2022-08-31T00:59:30.964Z,98848.00
2022-08-31T01:02:02.170Z,98877.00
2022-08-31T01:04:34.626Z,98850.00
2022-08-31T01:07:08.251Z,98854.00
2022-08-31T01:09:45.159Z,98850.00
2022-08-31T01:12:29.130Z,98847.00
2022-08-31T01:15:04.429Z,98848.00
2022-08-31T01:17:36.897Z,98837.00
2022-08-31T01:20:35.017Z,98840.00
2022-08-31T01:23:18.781Z,98846.00
2022-08-31T01:25:51.378Z,98847.00
2022-08-31T01:28:22.494Z,98846.00
2022-08-31T01:31:08.691Z,98854.00
2022-08-31T01:33:39.930Z,98871.00
2022-08-31T01:36:15.835Z,98881.00
2022-08-31T01:38:53.105Z,98862.00
2022-08-31T01:41:24.279Z,98868.00
2022-08-31T01:43:55.540Z,98861.00
2022-08-31T01:46:27.040Z,98851.00
2022-08-31T01:48:57.982Z,98851.00
2022-08-31T01:51:28.945Z,98852.00
2022-08-31T01:54:00.205Z,98855.00
2022-08-31T01:56:39.777Z,98855.00
2022-08-31T01:59:13.325Z,98851.00
2022-08-31T02:01:48.842Z,98849.00
2022-08-31T02:04:23.576Z,98849.00
2022-08-31T02:06:57.531Z,98858.00
2022-08-31T02:09:30.050Z,98852.00
2022-08-31T02:12:00.947Z,98851.00
2022-08-31T02:14:31.863Z,98857.00
2022-08-31T02:17:03.096Z,98860.00
2022-08-31T02:19:34.189Z,98866.00
2022-08-31T02:22:05.123Z,98884.00
2022-08-31T02:24:36.189Z,98855.00
2022-08-31T02:27:07.328Z,98852.00
2022-08-31T02:29:38.332Z,98857.00
2022-08-31T02:32:09.332Z,98853.00
2022-08-31T02:34:51.091Z,98854.00
2022-08-31T02:37:21.995Z,98856.00
2022-08-31T02:39:53.641Z,98855.00
2022-08-31T02:42:24.573Z,98863.00
2022-08-31T02:44:55.531Z,98862.00
2022-08-31T02:47:27.458Z,98869.00
2022-08-31T02:49:58.676Z,98864.00
2022-08-31T02:52:29.537Z,98864.00
2022-08-31T02:55:00.519Z,98870.00
2022-08-31T02:57:31.655Z,98865.00
2022-08-31T03:00:03.217Z,98878.00
2022-08-31T03:02:34.247Z,98864.00
2022-08-31T03:05:08.201Z,98861.00
2022-08-31T03:07:40.350Z,98852.00
2022-08-31T03:10:14.119Z,98858.00
2022-08-31T03:12:45.003Z,98857.00
2022-08-31T03:15:18.521Z,98860.00
2022-08-31T03:17:49.550Z,98865.00
2022-08-31T03:20:22.936Z,98866.00
2022-08-31T03:22:54.506Z,98858.00
2022-08-31T03:25:25.478Z,98861.00
2022-08-31T03:27:56.841Z,98858.00
2022-08-31T03:30:29.896Z,98886.00
2022-08-31T03:33:03.679Z,98860.00
2022-08-31T03:35:35.163Z,98868.00
2022-08-31T03:38:06.145Z,98851.00
2022-08-31T03:40:37.246Z,98853.00
2022-08-31T03:43:11.679Z,98843.00
2022-08-31T03:45:43.731Z,98854.00
2022-08-31T03:48:14.740Z,98839.00
2022-08-31T03:50:46.122Z,98848.00
2022-08-31T03:53:22.383Z,98840.00
2022-08-31T03:56:01.878Z,98843.00
2022-08-31T03:58:33.080Z,98846.00
2022-08-31T04:01:04.718Z,98847.00
2022-08-31T04:03:36.695Z,98856.00
2022-08-31T04:06:13.040Z,98846.00
2022-08-31T04:08:43.935Z,98858.00
2022-08-31T04:11:17.974Z,98856.00
2022-08-31T04:13:56.567Z,98871.00
2022-08-31T04:16:27.536Z,98875.00
2022-08-31T04:18:58.723Z,98874.00
2022-08-31T04:21:31.201Z,98877.00
2022-08-31T04:24:02.817Z,98877.00
2022-08-31T04:26:37.537Z,98873.00
2022-08-31T04:29:13.067Z,98874.00
2022-08-31T04:31:44.746Z,98873.00
2022-08-31T04:34:15.685Z,98871.00
2022-08-31T04:36:46.943Z,98874.00
2022-08-31T04:39:18.466Z,98882.00
2022-08-31T04:41:50.499Z,98874.00
2022-08-31T04:44:21.966Z,98881.00
2022-08-31T04:46:53.090Z,98888.00
2022-08-31T04:49:23.985Z,98884.00
2022-08-31T04:51:54.998Z,98893.00
2022-08-31T04:54:25.961Z,98890.00
2022-08-31T04:56:59.134Z,98899.00
2022-08-31T04:59:30.130Z,98904.00
2022-08-31T05:02:01.205Z,98910.00
2022-08-31T05:04:32.315Z,98910.00
2022-08-31T05:07:03.339Z,98900.00
2022-08-31T05:09:34.558Z,98908.00
2022-08-31T05:12:05.666Z,98907.00
2022-08-31T05:14:37.165Z,98907.00
2022-08-31T05:17:13.765Z,98902.00
2022-08-31T05:19:46.324Z,98904.00
2022-08-31T05:22:17.338Z,98909.00
2022-08-31T05:24:48.343Z,98913.00
2022-08-31T05:27:19.271Z,98905.00
2022-08-31T05:29:50.688Z,98918.00
2022-08-31T05:32:21.563Z,98918.00
2022-08-31T05:34:53.474Z,98918.00
2022-08-31T05:37:24.511Z,98919.00
2022-08-31T05:39:55.522Z,98916.00
2022-08-31T05:42:26.486Z,98921.00
2022-08-31T05:44:57.623Z,98919.00
2022-08-31T05:47:28.849Z,98920.00
2022-08-31T05:49:59.777Z,98929.00
2022-08-31T05:52:30.726Z,98930.00
2022-08-31T05:55:02.877Z,98931.00
2022-08-31T05:57:33.788Z,98938.00
2022-08-31T06:00:06.683Z,98927.00
2022-08-31T06:02:40.123Z,98931.00
2022-08-31T06:05:11.122Z,98931.00
2022-08-31T06:07:42.217Z,98930.00
2022-08-31T06:10:15.143Z,98951.00
2022-08-31T06:12:47.418Z,98938.00
2022-08-31T06:15:18.448Z,98935.00
2022-08-31T06:17:49.396Z,98937.00
2022-08-31T06:20:20.382Z,98930.00
2022-08-31T06:22:51.926Z,98940.00
2022-08-31T06:25:24.820Z,98947.00
2022-08-31T06:27:56.619Z,98947.00
2022-08-31T06:30:27.754Z,98950.00
2022-08-31T06:32:59.049Z,98949.00
2022-08-31T06:35:30.046Z,98958.00
2022-08-31T06:38:00.934Z,98954.00
2022-08-31T06:40:31.905Z,98946.00
2022-08-31T06:43:02.888Z,98944.00
2022-08-31T06:45:33.763Z,98955.00
2022-08-31T06:48:05.031Z,98946.00
2022-08-31T06:50:38.977Z,98968.00
2022-08-31T06:53:10.046Z,98951.00
2022-08-31T06:55:40.924Z,98950.00
2022-08-31T06:58:11.866Z,98947.00
2022-08-31T07:00:42.931Z,98947.00
2022-08-31T07:03:23.339Z,98953.00
2022-08-31T07:05:54.504Z,98958.00
2022-08-31T07:08:25.604Z,98951.00
2022-08-31T07:10:56.537Z,98946.00
2022-08-31T07:13:27.518Z,98957.00
2022-08-31T07:16:08.173Z,98959.00
2022-08-31T07:18:40.415Z,98959.00
2022-08-31T07:21:30.833Z,98968.00
2022-08-31T07:24:06.155Z,98965.00
2022-08-31T07:26:47.918Z,98969.00
2022-08-31T07:29:21.169Z,98976.00
2022-08-31T07:31:52.428Z,98971.00
2022-08-31T07:34:30.677Z,98970.00
2022-08-31T07:37:21.696Z,98972.00
2022-08-31T07:40:11.190Z,98972.00
2022-08-31T07:42:45.024Z,98969.00
2022-08-31T07:45:26.454Z,98971.00
2022-08-31T07:48:01.141Z,98969.00
2022-08-31T07:50:32.256Z,98967.00
2022-08-31T07:53:03.322Z,98966.00
2022-08-31T07:55:36.178Z,98968.00
2022-08-31T07:58:12.908Z,98966.00
2022-08-31T08:00:47.702Z,98963.00
2022-08-31T08:03:18.792Z,98958.00
2022-08-31T08:05:50.201Z,98965.00
2022-08-31T08:08:22.974Z,98977.00
2022-08-31T08:10:53.887Z,98977.00
2022-08-31T08:13:24.941Z,98975.00
2022-08-31T08:15:56.331Z,98982.00
2022-08-31T08:18:29.264Z,98976.00
2022-08-31T08:21:00.178Z,98983.00
2022-08-31T08:23:31.363Z,98991.00
2022-08-31T08:26:09.731Z,98992.00
2022-08-31T08:28:52.428Z,98995.00
2022-08-31T08:31:24.000Z,99000.00
2022-08-31T08:33:55.313Z,99000.00
2022-08-31T08:36:26.731Z,99005.00
2022-08-31T08:38:57.664Z,99002.00
2022-08-31T08:41:32.365Z,99004.00
2022-08-31T08:44:08.188Z,99013.00
2022-08-31T08:46:51.477Z,99004.00
2022-08-31T08:49:35.308Z,99006.00
2022-08-31T08:52:31.597Z,99016.00
2022-08-31T08:55:09.122Z,99009.00
2022-08-31T08:57:43.423Z,99014.00
2022-08-31T09:00:23.093Z,99015.00
2022-08-31T09:03:01.220Z,99020.00
2022-08-31T09:06:02.042Z,99029.00
2022-08-31T09:09:08.428Z,99026.00
2022-08-31T09:12:14.058Z,99025.00
2022-08-31T09:15:28.400Z,99028.00
2022-08-31T09:18:44.226Z,99019.00
2022-08-31T09:21:28.926Z,99028.00
2022-08-31T09:24:07.634Z,99028.00
2022-08-31T09:27:17.323Z,99031.00
2022-08-31T09:30:01.162Z,99025.00
2022-08-31T09:32:36.074Z,99031.00
2022-08-31T09:35:30.098Z,99025.00
2022-08-31T09:38:09.925Z,99025.00
2022-08-31T09:40:49.868Z,99021.00
2022-08-31T09:43:25.311Z,99019.00
2022-08-31T09:46:11.830Z,99030.00
2022-08-31T09:48:45.703Z,99027.00
2022-08-31T09:51:33.794Z,99030.00
2022-08-31T09:54:46.921Z,99027.00
2022-08-31T09:57:18.335Z,99026.00
2022-08-31T09:59:51.674Z,99037.00
2022-08-31T10:02:23.082Z,99026.00
2022-08-31T10:05:06.582Z,99032.00
2022-08-31T10:08:04.471Z,99025.00
2022-08-31T10:10:39.280Z,99024.00
2022-08-31T10:13:34.352Z,99025.00
2022-08-31T10:16:48.022Z,99040.00
2022-08-31T10:19:32.714Z,99028.00
2022-08-31T10:22:23.137Z,99028.00
2022-08-31T10:25:23.017Z,99026.00
2022-08-31T10:28:31.752Z,99020.00
2022-08-31T10:31:21.185Z,99026.00
2022-08-31T10:34:24.302Z,99026.00
2022-08-31T10:37:06.448Z,99029.00
2022-08-31T10:39:47.724Z,99035.00
2022-08-31T10:42:35.973Z,99036.00
2022-08-31T10:45:23.397Z,99028.00
2022-08-31T10:47:59.204Z,99029.00
2022-08-31T10:50:45.313Z,99031.00
2022-08-31T10:53:42.250Z,99029.00
2022-08-31T10:56:31.406Z,99031.00
2022-08-31T10:59:57.209Z,99027.00
2022-08-31T11:03:04.783Z,99036.00
2022-08-31T11:06:13.961Z,99038.00
2022-08-31T11:09:03.914Z,99030.00
2022-08-31T11:11:44.982Z,99034.00
2022-08-31T11:15:09.906Z,99033.00
2022-08-31T11:18:36.151Z,99030.00
2022-08-31T11:21:20.297Z,99030.00
2022-08-31T11:24:06.361Z,99034.00
2022-08-31T11:27:26.449Z,99020.00
2022-08-31T11:30:08.182Z,99024.00
2022-08-31T11:32:52.038Z,99015.00
2022-08-31T11:36:06.385Z,99032.00
2022-08-31T11:38:52.775Z,99024.00
2022-08-31T11:41:48.963Z,99020.00
2022-08-31T11:44:36.488Z,99020.00
2022-08-31T11:47:26.899Z,99030.00
2022-08-31T11:50:06.149Z,99020.00
2022-08-31T11:52:48.457Z,99022.00
2022-08-31T11:55:30.494Z,99017.00
2022-08-31T11:58:11.416Z,99043.00
2022-08-31T12:00:58.469Z,99025.00
2022-08-31T12:04:03.340Z,99015.00
2022-08-31T12:06:37.336Z,99016.00
2022-08-31T12:09:34.439Z,99019.00
2022-08-31T12:12:11.393Z,99010.00
2022-08-31T12:14:58.428Z,99011.00
2022-08-31T12:17:56.937Z,99017.00
2022-08-31T12:21:36.661Z,99005.00
2022-08-31T12:24:49.313Z,99000.00
2022-08-31T12:27:30.274Z,99003.00
2022-08-31T12:30:20.943Z,99004.00
2022-08-31T12:33:08.946Z,98997.00
2022-08-31T12:35:41.385Z,98992.00
2022-08-31T12:38:26.746Z,98989.00
2022-08-31T12:41:00.681Z,98993.00
2022-08-31T12:44:00.743Z,98990.00
2022-08-31T12:46:59.270Z,98996.00
2022-08-31T12:49:50.848Z,98991.00
2022-08-31T12:52:46.061Z,98983.00
2022-08-31T12:55:37.599Z,98984.00
2022-08-31T12:58:53.265Z,98979.00
2022-08-31T13:01:26.975Z,98972.00
2022-08-31T13:04:06.617Z,98969.00
2022-08-31T13:06:40.832Z,98968.00
2022-08-31T13:09:35.754Z,98959.00
2022-08-31T13:12:06.963Z,98960.00
2022-08-31T13:14:46.521Z,98955.00
2022-08-31T13:17:22.160Z,98965.00
2022-08-31T13:19:57.470Z,98964.00
2022-08-31T13:22:41.582Z,98954.00
2022-08-31T13:25:33.499Z,98961.00
2022-08-31T13:28:14.458Z,98936.00
2022-08-31T13:31:00.431Z,98934.00
2022-08-31T13:33:43.008Z,98937.00
2022-08-31T13:36:37.128Z,98938.00
2022-08-31T13:39:16.837Z,98932.00
2022-08-31T13:42:06.014Z,98930.00
2022-08-31T13:44:44.143Z,98929.00
2022-08-31T13:47:31.982Z,98931.00
2022-08-31T13:50:21.743Z,98928.00
2022-08-31T13:53:25.530Z,98916.00
2022-08-31T13:55:50.118Z,98916.00
2022-08-31T13:58:32.561Z,98916.00
2022-08-31T14:01:25.230Z,98928.00
2022-08-31T14:04:00.067Z,98916.00
2022-08-31T14:06:38.956Z,98909.00
2022-08-31T14:09:17.792Z,98908.00
2022-08-31T14:11:53.539Z,98908.00
2022-08-31T14:14:29.883Z,98911.00
2022-08-31T14:17:03.562Z,98904.00
2022-08-31T14:19:39.931Z,98898.00
2022-08-31T14:22:32.735Z,98896.00
2022-08-31T14:25:03.891Z,98912.00
2022-08-31T14:27:58.399Z,98900.00
2022-08-31T14:30:36.727Z,98887.00
2022-08-31T14:33:19.746Z,98883.00
2022-08-31T14:35:55.681Z,98888.00
2022-08-31T14:38:30.371Z,98884.00
2022-08-31T14:41:01.505Z,98893.00
2022-08-31T14:43:32.588Z,98884.00
2022-08-31T14:46:03.870Z,98881.00
2022-08-31T14:48:44.192Z,98887.00
2022-08-31T14:51:15.309Z,98874.00
2022-08-31T14:53:49.470Z,98877.00
2022-08-31T14:56:22.908Z,98883.00
2022-08-31T14:58:55.494Z,98880.00
2022-08-31T15:01:29.223Z,98879.00
2022-08-31T15:04:07.121Z,98872.00
2022-08-31T15:06:38.683Z,98886.00
2022-08-31T15:09:09.784Z,98889.00
2022-08-31T15:11:41.253Z,98904.00
2022-08-31T15:14:12.620Z,98904.00
2022-08-31T15:16:47.397Z,98905.00
2022-08-31T15:19:19.215Z,98904.00
2022-08-31T15:22:03.253Z,98902.00
2022-08-31T15:24:38.940Z,98915.00
2022-08-31T15:27:14.484Z,98913.00
2022-08-31T15:29:54.070Z,98941.00
2022-08-31T15:32:25.437Z,98913.00
2022-08-31T15:34:59.286Z,98914.00
2022-08-31T15:37:31.850Z,98904.00
2022-08-31T15:40:05.520Z,98907.00
2022-08-31T15:42:40.296Z,98905.00
2022-08-31T15:45:11.430Z,98902.00
2022-08-31T15:48:00.858Z,98891.00
2022-08-31T15:50:33.464Z,98891.00
2022-08-31T15:53:09.867Z,98897.00
2022-08-31T15:55:49.037Z,98889.00
2022-08-31T15:58:24.721Z,98889.00
2022-08-31T16:00:56.200Z,98904.00
2022-08-31T16:03:32.154Z,98878.00
2022-08-31T16:06:06.368Z,98870.00
2022-08-31T16:08:44.234Z,98864.00
2022-08-31T16:11:15.345Z,98867.00
2022-08-31T16:13:59.929Z,98870.00
2022-08-31T16:16:35.987Z,98869.00
2022-08-31T16:19:10.049Z,98882.00
2022-08-31T16:21:50.465Z,98867.00
2022-08-31T16:24:25.133Z,98851.00
2022-08-31T16:26:59.147Z,98864.00
2022-08-31T16:29:30.182Z,98863.00
2022-08-31T16:32:02.593Z,98858.00
2022-08-31T16:34:34.909Z,98856.00
2022-08-31T16:37:07.794Z,98853.00
2022-08-31T16:39:43.889Z,98856.00
2022-08-31T16:42:17.715Z,98857.00
2022-08-31T16:44:51.310Z,98861.00
2022-08-31T16:47:22.354Z,98866.00
2022-08-31T16:50:01.253Z,98869.00
2022-08-31T16:52:35.582Z,98866.00
2022-08-31T16:55:07.330Z,98871.00
2022-08-31T16:57:39.099Z,98861.00
2022-08-31T17:00:13.452Z,98866.00
2022-08-31T17:02:44.364Z,98866.00
2022-08-31T17:05:17.746Z,98868.00
2022-08-31T17:07:49.154Z,98864.00
2022-08-31T17:10:20.121Z,98864.00
2022-08-31T17:12:55.650Z,98860.00
2022-08-31T17:15:26.807Z,98872.00
2022-08-31T17:17:57.907Z,98864.00
2022-08-31T17:20:31.846Z,98858.00
2022-08-31T17:23:02.972Z,98859.00
2022-08-31T17:25:35.826Z,98861.00
2022-08-31T17:28:07.917Z,98867.00
2022-08-31T17:30:44.899Z,98865.00
2022-08-31T17:33:15.871Z,98859.00
2022-08-31T17:35:46.820Z,98867.00
2022-08-31T17:38:18.424Z,98880.00
2022-08-31T17:40:49.894Z,98853.00
2022-08-31T17:43:22.104Z,98872.00
2022-08-31T17:45:56.192Z,98861.00
2022-08-31T17:48:27.128Z,98867.00
2022-08-31T17:50:58.502Z,98875.00
2022-08-31T17:53:29.626Z,98883.00
2022-08-31T17:56:01.153Z,98877.00
2022-08-31T17:58:32.249Z,98876.00
2022-08-31T18:01:06.083Z,98880.00
2022-08-31T18:03:37.229Z,98880.00
2022-08-31T18:06:08.275Z,98886.00
2022-08-31T18:08:40.706Z,98897.00
2022-08-31T18:11:11.661Z,98893.00
2022-08-31T18:13:44.087Z,98900.00
2022-08-31T18:16:15.729Z,98902.00
2022-08-31T18:18:50.424Z,98903.00
2022-08-31T18:21:26.791Z,98905.00
2022-08-31T18:24:00.093Z,98913.00
2022-08-31T18:26:35.178Z,98913.00
2022-08-31T18:29:16.071Z,98934.00
2022-08-31T18:31:51.240Z,98911.00
2022-08-31T18:34:24.550Z,98908.00
2022-08-31T18:36:55.546Z,98911.00
2022-08-31T18:39:51.705Z,98910.00
2022-08-31T18:42:42.316Z,98912.00
2022-08-31T18:45:19.136Z,98914.00
2022-08-31T18:50:50.397Z,98919.00
2022-08-31T18:53:28.953Z,98931.00
2022-08-31T18:56:11.815Z,98921.00
2022-08-31T18:58:43.681Z,98920.00
2022-08-31T19:01:16.122Z,98925.00
2022-08-31T19:03:47.898Z,98917.00
2022-08-31T19:06:22.826Z,98924.00
2022-08-31T19:08:53.827Z,98926.00
2022-08-31T19:11:25.465Z,98927.00
2022-08-31T19:13:56.544Z,98926.00
2022-08-31T19:16:33.519Z,98924.00
2022-08-31T19:19:04.794Z,98920.00
2022-08-31T19:21:37.060Z,98920.00
2022-08-31T19:24:12.919Z,98918.00
2022-08-31T19:26:48.469Z,98917.00
2022-08-31T19:29:25.693Z,98913.00
2022-08-31T19:31:59.412Z,98920.00
2022-08-31T19:34:34.855Z,98927.00
2022-08-31T19:37:07.799Z,98919.00
2022-08-31T19:39:43.050Z,98942.00
2022-08-31T19:42:15.259Z,98921.00
2022-08-31T19:44:55.830Z,98921.00
2022-08-31T19:47:38.870Z,98928.00
2022-08-31T19:50:15.122Z,98940.00
2022-08-31T19:52:46.759Z,98927.00
2022-08-31T19:55:20.778Z,98917.00
2022-08-31T19:57:53.089Z,98927.00
2022-08-31T20:00:24.273Z,98919.00
2022-08-31T20:02:55.725Z,98919.00
2022-08-31T20:05:27.137Z,98926.00
2022-08-31T20:07:58.094Z,98917.00
2022-08-31T20:10:30.174Z,98928.00
2022-08-31T20:13:02.062Z,98916.00
2022-08-31T20:15:39.148Z,98913.00
2022-08-31T20:18:12.074Z,98919.00
2022-08-31T20:20:45.783Z,98912.00
2022-08-31T20:23:21.305Z,98908.00
2022-08-31T20:25:53.296Z,98908.00
2022-08-31T20:28:27.904Z,98895.00
2022-08-31T20:31:07.011Z,98907.00
2022-08-31T20:33:38.879Z,98904.00
2022-08-31T20:36:20.959Z,98913.00
2022-08-31T20:39:07.871Z,98908.00
2022-08-31T20:41:49.163Z,98907.00
2022-08-31T20:44:38.739Z,98932.00
2022-08-31T20:47:29.220Z,98898.00
2022-08-31T20:50:03.444Z,98902.00
2022-08-31T20:52:35.366Z,98895.00
2022-08-31T20:55:07.830Z,98913.00
2022-08-31T20:57:41.750Z,98909.00
2022-08-31T21:00:14.787Z,98907.00
2022-08-31T21:02:47.077Z,98917.00
2022-08-31T21:08:11.574Z,98922.00
2022-08-31T21:10:42.600Z,98917.00
2022-08-31T21:13:13.620Z,98918.00
2022-08-31T21:15:46.952Z,98911.00
2022-08-31T21:18:18.111Z,98924.00
2022-08-31T21:20:51.564Z,98916.00
2022-08-31T21:23:22.441Z,98919.00
2022-08-31T21:25:55.180Z,98932.00
2022-08-31T21:28:29.653Z,98907.00
2022-08-31T21:31:28.523Z,98936.00
2022-08-31T21:34:02.507Z,98913.00
2022-08-31T21:36:34.135Z,98908.00
2022-08-31T21:39:10.152Z,98901.00
2022-08-31T21:41:43.074Z,98910.00
2022-08-31T21:44:18.149Z,98903.00
2022-08-31T21:46:50.804Z,98903.00
2022-08-31T21:49:22.495Z,98916.00
2022-08-31T21:51:57.233Z,98912.00
2022-08-31T21:54:29.259Z,98916.00
2022-08-31T21:57:03.106Z,98920.00
2022-08-31T21:59:36.163Z,98923.00
2022-08-31T22:02:11.483Z,98934.00
2022-08-31T22:04:44.274Z,98934.00
2022-08-31T22:07:15.399Z,98931.00
2022-08-31T22:09:47.002Z,98926.00
2022-08-31T22:12:18.231Z,98936.00
2022-08-31T22:14:50.651Z,98934.00
2022-08-31T22:17:36.947Z,98939.00
2022-08-31T22:20:17.526Z,98944.00
2022-08-31T22:22:49.683Z,98946.00
2022-08-31T22:25:20.569Z,98934.00
2022-08-31T22:27:51.486Z,98940.00
2022-08-31T22:30:24.069Z,98947.00
2022-08-31T22:32:55.141Z,98945.00
2022-08-31T22:35:26.129Z,98951.00
2022-08-31T22:37:57.097Z,98948.00
2022-08-31T22:40:28.706Z,98948.00
2022-08-31T22:42:59.748Z,98951.00
2022-08-31T22:45:48.729Z,98953.00
2022-08-31T22:48:19.966Z,98955.00
2022-08-31T22:50:51.038Z,98950.00
2022-08-31T22:53:21.958Z,98948.00
2022-08-31T22:55:53.062Z,98957.00
2022-08-31T22:58:24.028Z,98958.00
2022-08-31T23:00:55.059Z,98952.00
2022-08-31T23:03:27.180Z,98949.00
2022-08-31T23:05:58.123Z,98949.00
2022-08-31T23:08:29.416Z,98949.00
2022-08-31T23:11:01.014Z,98939.00
2022-08-31T23:13:50.480Z,98943.00
2022-08-31T23:16:29.644Z,98936.00
2022-08-31T23:19:12.342Z,98941.00
2022-08-31T23:21:52.952Z,98942.00
2022-08-31T23:24:31.894Z,98941.00
2022-08-31T23:27:05.097Z,98939.00
2022-08-31T23:29:47.096Z,98920.00
2022-08-31T23:32:21.461Z,98933.00
2022-08-31T23:34:52.587Z,98924.00
2022-08-31T23:37:25.883Z,98909.00
2022-08-31T23:39:59.439Z,98902.00
2022-08-31T23:42:30.448Z,98905.00
2022-08-31T23:45:02.143Z,98907.00
2022-08-31T23:47:33.260Z,98906.00
2022-08-31T23:50:08.071Z,98909.00
2022-08-31T23:52:41.745Z,98908.00
2022-08-31T23:55:12.904Z,98906.00
2022-08-31T23:57:44.465Z,98905.00
